createdAt,value
2019-05-14T00:01:42.218Z,5.64
2019-05-14T00:04:14.549Z,5.65
2019-05-14T00:06:47.110Z,5.77
2019-05-14T00:09:21.508Z,5.84
2019-05-14T00:11:54.018Z,5.85
2019-05-14T00:14:38.769Z,5.86
2019-05-14T00:17:01.745Z,5.89
2019-05-14T00:19:36.015Z,5.91
2019-05-14T00:22:08.665Z,5.97
2019-05-14T00:24:41.749Z,6.00
2019-05-14T00:27:14.895Z,6.06
2019-05-14T00:29:47.645Z,6.09
2019-05-14T00:32:21.652Z,6.12
2019-05-14T00:34:54.620Z,6.14
2019-05-14T00:37:27.150Z,6.16
2019-05-14T00:40:01.328Z,6.19
2019-05-14T00:42:34.185Z,6.21
2019-05-14T00:45:08.372Z,6.23
2019-05-14T00:47:41.761Z,6.24
2019-05-14T00:50:15.070Z,6.21
2019-05-14T00:52:47.815Z,6.19
2019-05-14T00:55:22.375Z,6.17
2019-05-14T00:57:54.940Z,6.16
2019-05-14T01:00:31.169Z,6.15
2019-05-14T01:03:03.280Z,6.09
2019-05-14T01:05:36.065Z,6.04
2019-05-14T01:08:08.827Z,6.00
2019-05-14T01:10:41.883Z,5.93
2019-05-14T01:13:16.795Z,5.84
2019-05-14T01:15:51.893Z,5.76
2019-05-14T01:18:23.685Z,5.67
2019-05-14T01:20:57.425Z,5.60
2019-05-14T01:23:32.064Z,5.53
2019-05-14T01:26:04.670Z,5.44
2019-05-14T01:28:37.481Z,5.34
2019-05-14T01:31:11.399Z,5.26
2019-05-14T01:33:44.641Z,5.19
2019-05-14T01:36:17.196Z,5.11
2019-05-14T01:38:51.318Z,5.04
2019-05-14T01:41:24.161Z,4.97
2019-05-14T01:43:57.220Z,4.89
2019-05-14T01:46:31.632Z,4.83
2019-05-14T01:49:05.086Z,4.76
2019-05-14T01:51:38.001Z,4.69
2019-05-14T01:54:11.947Z,4.63
2019-05-14T01:56:44.986Z,4.56
2019-05-14T01:59:17.771Z,4.52
2019-05-14T02:01:51.778Z,4.45
2019-05-14T02:04:24.670Z,4.39
2019-05-14T02:06:57.612Z,4.36
2019-05-14T02:09:31.093Z,4.31
2019-05-14T02:12:03.746Z,4.24
2019-05-14T02:14:36.436Z,4.20
2019-05-14T02:17:09.030Z,4.15
2019-05-14T02:19:42.746Z,4.10
2019-05-14T02:22:15.706Z,4.09
2019-05-14T02:24:48.385Z,4.03
2019-05-14T02:27:21.483Z,4.02
2019-05-14T02:29:54.161Z,3.99
2019-05-14T02:32:29.698Z,3.97
2019-05-14T02:35:01.113Z,3.96
2019-05-14T02:37:34.725Z,3.97
2019-05-14T02:40:10.168Z,3.95
2019-05-14T02:42:43.116Z,3.96
2019-05-14T02:45:19.522Z,3.96
2019-05-14T02:47:50.648Z,3.96
2019-05-14T02:50:23.425Z,3.91
2019-05-14T02:52:59.609Z,3.89
2019-05-14T02:55:30.712Z,3.87
2019-05-14T02:58:03.742Z,3.82
2019-05-14T03:00:40.436Z,3.79
2019-05-14T03:03:10.846Z,3.75
2019-05-14T03:05:43.365Z,3.70
2019-05-14T03:08:19.486Z,3.65
2019-05-14T03:10:50.845Z,3.61
2019-05-14T03:13:25.347Z,3.61
2019-05-14T03:15:59.416Z,3.59
2019-05-14T03:18:32.380Z,3.57
2019-05-14T03:21:05.001Z,3.61
2019-05-14T03:23:39.392Z,3.65
2019-05-14T03:26:12.103Z,3.71
2019-05-14T03:28:44.867Z,3.86
2019-05-14T03:31:22.343Z,4.56
2019-05-14T03:33:53.275Z,4.94
2019-05-14T03:36:32.399Z,4.80
2019-05-14T03:39:00.531Z,4.77
2019-05-14T03:41:33.501Z,4.66
2019-05-14T03:44:09.609Z,5.96
2019-05-14T03:46:49.473Z,7.12
2019-05-14T03:49:15.115Z,7.57
2019-05-14T03:51:49.757Z,7.95
2019-05-14T03:54:22.629Z,8.20
2019-05-14T03:56:55.333Z,8.77
2019-05-14T03:59:29.161Z,7.44
2019-05-14T04:02:02.074Z,6.54
2019-05-14T04:04:35.085Z,6.90
2019-05-14T04:07:10.248Z,8.14
2019-05-14T04:09:44.646Z,7.87
2019-05-14T04:12:19.198Z,6.46
2019-05-14T04:14:55.128Z,5.66
2019-05-14T04:17:36.736Z,5.35
2019-05-14T04:20:04.310Z,5.17
2019-05-14T04:22:39.257Z,5.11
2019-05-14T04:25:13.702Z,5.15
2019-05-14T04:27:49.466Z,5.27
2019-05-14T04:30:24.302Z,5.59
2019-05-14T04:32:59.577Z,6.83
2019-05-14T04:35:32.497Z,7.36
2019-05-14T04:38:05.337Z,8.58
2019-05-14T04:40:40.019Z,11.38
2019-05-14T04:43:12.660Z,13.48
2019-05-14T04:45:45.607Z,14.33
2019-05-14T04:48:31.188Z,14.19
2019-05-14T04:50:53.332Z,15.22
2019-05-14T04:53:25.890Z,14.35
2019-05-14T04:56:00.139Z,14.91
2019-05-14T04:58:33.186Z,15.12
2019-05-14T05:01:09.558Z,15.70
2019-05-14T05:03:40.476Z,15.34
2019-05-14T05:06:13.386Z,15.58
2019-05-14T05:08:49.435Z,15.64
2019-05-14T05:11:21.616Z,15.43
2019-05-14T05:13:54.806Z,15.62
2019-05-14T05:16:29.570Z,16.09
2019-05-14T05:19:01.811Z,16.07
2019-05-14T05:21:34.237Z,17.02
2019-05-14T05:24:09.022Z,16.01
2019-05-14T05:26:41.215Z,16.08
2019-05-14T05:29:13.850Z,17.38
2019-05-14T05:31:48.793Z,17.43
2019-05-14T05:34:21.085Z,16.69
2019-05-14T05:36:53.711Z,14.89
2019-05-14T05:39:28.207Z,12.56
2019-05-14T05:42:00.540Z,11.55
2019-05-14T05:44:34.323Z,10.47
2019-05-14T05:47:09.235Z,10.08
2019-05-14T05:49:41.419Z,9.57
2019-05-14T05:52:14.166Z,9.35
2019-05-14T05:54:49.051Z,9.43
2019-05-14T05:57:21.546Z,9.42
2019-05-14T05:59:54.100Z,9.53
2019-05-14T06:02:28.941Z,9.18
2019-05-14T06:05:01.080Z,8.96
2019-05-14T06:07:34.135Z,8.49
2019-05-14T06:10:09.086Z,8.32
2019-05-14T06:12:41.791Z,8.20
2019-05-14T06:15:14.533Z,8.14
2019-05-14T06:17:49.208Z,8.11
2019-05-14T06:20:21.680Z,7.90
2019-05-14T06:22:54.337Z,7.90
2019-05-14T06:25:30.875Z,7.83
2019-05-14T06:28:01.365Z,7.79
2019-05-14T06:30:39.849Z,7.72
2019-05-14T06:33:13.695Z,7.70
2019-05-14T06:35:48.602Z,7.46
2019-05-14T06:38:21.345Z,7.40
2019-05-14T06:40:53.947Z,7.22
2019-05-14T06:43:28.727Z,7.22
2019-05-14T06:46:01.270Z,7.20
2019-05-14T06:48:34.910Z,7.20
2019-05-14T06:51:08.863Z,7.24
2019-05-14T06:53:41.985Z,7.15
2019-05-14T06:56:17.888Z,7.10
2019-05-14T06:58:49.418Z,7.27
2019-05-14T07:01:21.951Z,7.27
2019-05-14T07:03:54.730Z,7.15
2019-05-14T07:06:29.103Z,7.21
2019-05-14T07:09:01.071Z,7.37
2019-05-14T07:11:34.471Z,7.37
2019-05-14T07:14:11.201Z,7.24
2019-05-14T07:16:41.021Z,7.29
2019-05-14T07:19:15.787Z,7.31
2019-05-14T07:21:49.141Z,7.40
2019-05-14T07:24:22.950Z,7.50
2019-05-14T07:26:58.345Z,7.43
2019-05-14T07:29:29.536Z,7.35
2019-05-14T07:32:02.071Z,7.30
2019-05-14T07:34:34.540Z,7.31
2019-05-14T07:37:09.359Z,7.30
2019-05-14T07:39:41.010Z,7.33
2019-05-14T07:42:13.535Z,7.25
2019-05-14T07:44:48.310Z,7.28
2019-05-14T07:47:19.890Z,7.36
2019-05-14T07:49:52.573Z,7.39
2019-05-14T07:52:24.932Z,7.37
2019-05-14T07:54:58.714Z,7.32
2019-05-14T07:57:31.231Z,7.36
2019-05-14T08:00:05.233Z,7.40
2019-05-14T08:02:38.073Z,7.38
2019-05-14T08:05:10.911Z,7.37
2019-05-14T08:07:43.270Z,7.41
2019-05-14T08:10:19.030Z,7.44
2019-05-14T08:12:51.391Z,7.37
2019-05-14T08:15:23.851Z,7.22
2019-05-14T08:17:58.582Z,7.18
2019-05-14T08:20:31.035Z,7.18
2019-05-14T08:23:04.878Z,7.22
2019-05-14T08:25:39.022Z,7.16
2019-05-14T08:28:11.653Z,7.15
2019-05-14T08:30:44.530Z,7.08
2019-05-14T08:33:18.601Z,7.21
2019-05-14T08:35:51.091Z,7.29
2019-05-14T08:38:23.712Z,7.12
2019-05-14T08:40:58.734Z,7.30
2019-05-14T08:43:30.371Z,7.43
2019-05-14T08:46:02.892Z,7.49
2019-05-14T08:48:35.352Z,7.60
2019-05-14T08:51:09.120Z,7.70
2019-05-14T08:53:42.870Z,7.84
2019-05-14T08:56:18.895Z,7.97
2019-05-14T08:58:50.551Z,7.98
2019-05-14T09:01:25.512Z,7.96
2019-05-14T09:03:59.538Z,8.04
2019-05-14T09:06:31.991Z,8.27
2019-05-14T09:09:06.091Z,8.29
2019-05-14T09:11:44.452Z,8.29
2019-05-14T09:14:12.332Z,8.61
2019-05-14T09:16:49.199Z,8.70
2019-05-14T09:19:19.401Z,8.91
2019-05-14T09:21:52.894Z,8.91
2019-05-14T09:24:25.232Z,9.18
2019-05-14T09:26:59.240Z,9.54
2019-05-14T09:29:31.931Z,9.54
2019-05-14T09:32:04.532Z,9.93
2019-05-14T09:34:39.208Z,9.98
2019-05-14T09:37:11.191Z,9.98
2019-05-14T09:39:43.731Z,10.02
2019-05-14T09:42:19.217Z,10.19
2019-05-14T09:44:50.271Z,10.19
2019-05-14T09:47:22.750Z,10.13
2019-05-14T09:49:55.411Z,10.16
2019-05-14T09:52:29.279Z,10.42
2019-05-14T09:55:01.871Z,10.64
2019-05-14T09:57:34.516Z,11.15
2019-05-14T10:00:14.307Z,11.14
2019-05-14T10:02:45.041Z,11.51
2019-05-14T10:05:19.471Z,11.40
2019-05-14T10:07:51.631Z,11.21
2019-05-14T10:10:24.112Z,11.07
2019-05-14T10:12:58.170Z,10.95
2019-05-14T10:15:30.771Z,10.86
2019-05-14T10:18:03.171Z,10.75
2019-05-14T10:20:44.447Z,10.86
2019-05-14T10:23:09.853Z,11.03
2019-05-14T10:25:46.731Z,11.44
2019-05-14T10:28:19.454Z,11.66
2019-05-14T10:30:56.450Z,11.75
2019-05-14T10:33:30.471Z,11.84
2019-05-14T10:36:03.291Z,12.07
2019-05-14T10:38:35.811Z,12.08
2019-05-14T10:41:09.047Z,12.04
2019-05-14T10:43:42.913Z,12.06
2019-05-14T10:46:15.671Z,12.18
2019-05-14T10:48:48.451Z,12.28
2019-05-14T10:51:21.091Z,12.17
2019-05-14T10:53:53.620Z,12.01
2019-05-14T10:56:29.484Z,11.92
2019-05-14T10:59:01.339Z,12.00
2019-05-14T11:01:33.803Z,11.82
2019-05-14T11:04:06.450Z,11.74
2019-05-14T11:06:41.832Z,11.86
2019-05-14T11:09:14.131Z,11.86
2019-05-14T11:11:46.754Z,12.36
2019-05-14T11:14:19.462Z,12.33
2019-05-14T11:16:51.730Z,12.71
2019-05-14T11:19:28.811Z,12.73
2019-05-14T11:22:01.331Z,12.56
2019-05-14T11:24:33.793Z,12.62
2019-05-14T11:27:06.392Z,12.51
2019-05-14T11:29:39.043Z,12.61
2019-05-14T11:32:11.455Z,12.68
2019-05-14T11:34:43.772Z,12.95
2019-05-14T11:37:18.552Z,12.96
2019-05-14T11:39:50.210Z,13.15
2019-05-14T11:42:23.972Z,13.42
2019-05-14T11:44:58.244Z,13.32
2019-05-14T11:47:30.692Z,13.43
2019-05-14T11:50:03.513Z,13.20
2019-05-14T11:52:35.892Z,12.84
2019-05-14T11:55:11.125Z,12.93
2019-05-14T11:57:43.460Z,12.97
2019-05-14T12:00:19.320Z,13.05
2019-05-14T12:02:51.953Z,13.41
2019-05-14T12:05:24.507Z,13.37
2019-05-14T12:07:58.330Z,13.47
2019-05-14T12:10:30.739Z,13.37
2019-05-14T12:13:04.371Z,13.42
2019-05-14T12:15:38.861Z,13.47
2019-05-14T12:18:11.190Z,13.64
2019-05-14T12:20:43.771Z,13.60
2019-05-14T12:23:19.217Z,13.37
2019-05-14T12:25:51.550Z,13.17
2019-05-14T12:28:24.011Z,13.94
2019-05-14T12:30:58.332Z,14.33
2019-05-14T12:33:31.779Z,13.95
2019-05-14T12:36:04.391Z,14.14
2019-05-14T12:38:38.269Z,13.66
2019-05-14T12:41:10.931Z,13.97
2019-05-14T12:43:43.887Z,14.25
2019-05-14T12:46:16.795Z,14.41
2019-05-14T12:48:50.692Z,13.63
2019-05-14T12:51:23.172Z,13.48
2019-05-14T12:53:58.106Z,14.13
2019-05-14T12:56:29.731Z,13.43
2019-05-14T12:59:02.122Z,13.48
2019-05-14T13:01:34.638Z,13.19
2019-05-14T13:04:08.487Z,13.80
2019-05-14T13:06:43.322Z,14.52
2019-05-14T13:09:19.140Z,14.57
2019-05-14T13:11:49.814Z,13.98
2019-05-14T13:14:22.190Z,13.85
2019-05-14T13:16:54.881Z,13.60
2019-05-14T13:19:28.463Z,13.44
2019-05-14T13:22:13.117Z,13.55
2019-05-14T13:24:35.171Z,13.51
2019-05-14T13:27:09.588Z,13.60
2019-05-14T13:29:42.132Z,13.70
2019-05-14T13:32:14.771Z,13.73
2019-05-14T13:34:56.101Z,13.88
2019-05-14T13:37:28.913Z,14.01
2019-05-14T13:40:01.371Z,14.15
2019-05-14T13:42:38.848Z,14.03
2019-05-14T13:45:10.810Z,13.73
2019-05-14T13:47:43.417Z,13.57
2019-05-14T13:50:19.432Z,13.48
2019-05-14T13:53:03.137Z,13.70
2019-05-14T13:55:28.043Z,13.86
2019-05-14T13:57:59.985Z,14.05
2019-05-14T14:00:32.753Z,14.34
2019-05-14T14:03:09.289Z,14.18
2019-05-14T14:05:40.851Z,14.35
2019-05-14T14:08:13.391Z,13.81
2019-05-14T14:10:53.059Z,14.09
2019-05-14T14:13:22.050Z,14.07
2019-05-14T14:15:55.610Z,14.32
2019-05-14T14:18:29.403Z,14.65
2019-05-14T14:21:02.380Z,14.38
2019-05-14T14:23:39.049Z,14.39
2019-05-14T14:26:11.990Z,14.51
2019-05-14T14:28:44.529Z,14.67
2019-05-14T14:31:18.949Z,14.63
2019-05-14T14:33:52.071Z,14.36
2019-05-14T14:36:24.721Z,14.33
2019-05-14T14:38:58.826Z,14.24
2019-05-14T14:41:31.034Z,14.37
2019-05-14T14:44:03.830Z,14.53
2019-05-14T14:46:36.530Z,14.63
2019-05-14T14:49:10.746Z,14.62
2019-05-14T14:51:45.151Z,14.75
2019-05-14T14:54:17.573Z,14.89
2019-05-14T14:56:50.253Z,14.78
2019-05-14T14:59:23.204Z,14.57
2019-05-14T15:01:59.399Z,14.90
2019-05-14T15:04:29.998Z,14.81
2019-05-14T15:07:02.864Z,14.41
2019-05-14T15:09:35.456Z,14.33
2019-05-14T15:12:09.081Z,14.08
2019-05-14T15:14:41.851Z,14.00
2019-05-14T15:17:14.648Z,13.61
2019-05-14T15:19:49.898Z,13.58
2019-05-14T15:22:21.911Z,13.48
2019-05-14T15:24:54.511Z,13.82
2019-05-14T15:27:28.261Z,13.61
2019-05-14T15:30:00.992Z,13.67
2019-05-14T15:32:33.593Z,13.72
2019-05-14T15:35:11.039Z,13.52
2019-05-14T15:37:44.037Z,13.37
2019-05-14T15:40:22.094Z,13.36
2019-05-14T15:42:51.777Z,13.34
2019-05-14T15:45:24.220Z,13.05
2019-05-14T15:48:02.927Z,13.01
2019-05-14T15:50:32.680Z,12.89
2019-05-14T15:53:10.841Z,12.97
2019-05-14T15:55:40.380Z,12.95
2019-05-14T15:58:13.119Z,13.20
2019-05-14T16:00:45.722Z,12.98
2019-05-14T16:03:19.466Z,12.87
2019-05-14T16:05:52.170Z,12.83
2019-05-14T16:08:25.052Z,12.82
2019-05-14T16:11:00.252Z,12.67
2019-05-14T16:13:32.735Z,12.62
2019-05-14T16:16:05.441Z,12.64
2019-05-14T16:18:38.634Z,12.57
2019-05-14T16:21:11.986Z,12.56
2019-05-14T16:23:44.692Z,12.51
2019-05-14T16:26:18.760Z,12.55
2019-05-14T16:28:52.067Z,12.44
2019-05-14T16:31:24.765Z,12.42
2019-05-14T16:33:58.861Z,12.27
2019-05-14T16:36:32.342Z,12.36
2019-05-14T16:39:06.581Z,12.25
2019-05-14T16:41:39.476Z,12.22
2019-05-14T16:44:12.241Z,12.19
2019-05-14T16:46:44.915Z,12.17
2019-05-14T16:49:18.554Z,12.18
2019-05-14T16:51:51.426Z,12.15
2019-05-14T16:54:24.800Z,12.12
2019-05-14T16:56:57.467Z,12.04
2019-05-14T16:59:30.250Z,11.92
2019-05-14T17:02:02.994Z,12.03
2019-05-14T17:04:35.981Z,11.99
2019-05-14T17:07:09.563Z,11.89
2019-05-14T17:09:42.672Z,11.84
2019-05-14T17:12:15.160Z,11.87
2019-05-14T17:14:48.446Z,11.75
2019-05-14T17:17:21.541Z,11.57
2019-05-14T17:19:54.480Z,11.52
2019-05-14T17:22:32.616Z,11.49
2019-05-14T17:25:01.717Z,11.47
2019-05-14T17:27:35.306Z,11.44
2019-05-14T17:30:10.206Z,11.31
2019-05-14T17:32:42.916Z,11.26
2019-05-14T17:35:16.101Z,11.19
2019-05-14T17:37:48.861Z,11.12
2019-05-14T17:40:22.089Z,11.07
2019-05-14T17:42:54.851Z,11.07
2019-05-14T17:45:28.479Z,10.96
2019-05-14T17:48:01.106Z,10.96
2019-05-14T17:50:33.801Z,10.95
2019-05-14T17:53:06.405Z,10.91
2019-05-14T17:55:47.145Z,10.86
2019-05-14T17:58:13.850Z,10.82
2019-05-14T18:00:46.921Z,10.78
2019-05-14T18:03:19.885Z,10.73
2019-05-14T18:05:52.686Z,10.68
2019-05-14T18:08:25.641Z,10.67
2019-05-14T18:11:01.095Z,10.65
2019-05-14T18:13:32.856Z,10.58
2019-05-14T18:16:08.787Z,10.54
2019-05-14T18:18:41.125Z,10.51
2019-05-14T18:21:14.065Z,10.47
2019-05-14T18:23:48.980Z,10.43
2019-05-14T18:26:21.623Z,10.42
2019-05-14T18:28:54.401Z,10.41
2019-05-14T18:31:27.300Z,10.37
2019-05-14T18:34:00.286Z,10.35
2019-05-14T18:36:33.235Z,10.30
2019-05-14T18:39:09.190Z,10.28
2019-05-14T18:41:41.562Z,10.23
2019-05-14T18:44:14.236Z,10.22
2019-05-14T18:46:48.661Z,10.19
2019-05-14T18:49:21.956Z,10.17
2019-05-14T18:51:54.657Z,10.14
2019-05-14T18:54:29.366Z,10.10
2019-05-14T18:57:02.901Z,10.07
2019-05-14T18:59:35.562Z,10.04
2019-05-14T19:02:08.688Z,10.01
2019-05-14T19:04:41.641Z,9.99
2019-05-14T19:07:15.682Z,9.96
2019-05-14T19:09:49.432Z,9.94
2019-05-14T19:12:22.667Z,9.91
2019-05-14T19:14:54.988Z,9.88
2019-05-14T19:17:28.423Z,9.86
2019-05-14T19:20:02.331Z,9.84
2019-05-14T19:22:35.351Z,9.81
2019-05-14T19:25:09.419Z,9.77
2019-05-14T19:27:42.085Z,9.76
2019-05-14T19:30:15.006Z,9.71
2019-05-14T19:32:48.486Z,9.71
2019-05-14T19:35:21.226Z,9.68
2019-05-14T19:37:53.891Z,9.65
2019-05-14T19:40:28.196Z,9.64
2019-05-14T19:43:01.186Z,9.59
2019-05-14T19:45:34.246Z,9.58
2019-05-14T19:48:08.151Z,9.56
2019-05-14T19:50:41.110Z,9.54
2019-05-14T19:53:14.020Z,9.49
2019-05-14T19:55:48.487Z,9.43
2019-05-14T19:58:21.781Z,9.44
2019-05-14T20:00:54.297Z,9.42
2019-05-14T20:03:29.142Z,9.35
2019-05-14T20:06:01.422Z,9.35
2019-05-14T20:08:34.126Z,9.31
2019-05-14T20:11:06.969Z,9.30
2019-05-14T20:13:39.635Z,9.26
2019-05-14T20:16:12.635Z,9.24
2019-05-14T20:18:45.180Z,9.22
2019-05-14T20:21:17.990Z,9.24
2019-05-14T20:23:50.658Z,9.24
2019-05-14T20:26:23.366Z,9.21
2019-05-14T20:28:56.217Z,9.18
2019-05-14T20:31:29.652Z,9.14
2019-05-14T20:34:02.815Z,9.14
2019-05-14T20:36:35.606Z,9.14
2019-05-14T20:39:08.769Z,9.12
2019-05-14T20:41:41.587Z,9.15
2019-05-14T20:44:14.751Z,9.15
2019-05-14T20:46:48.922Z,9.15
2019-05-14T20:49:21.825Z,9.10
2019-05-14T20:51:54.450Z,9.10
2019-05-14T20:54:28.956Z,9.11
2019-05-14T20:57:01.441Z,9.11
2019-05-14T20:59:34.190Z,9.09
2019-05-14T21:02:08.429Z,9.09
2019-05-14T21:04:41.255Z,9.07
2019-05-14T21:07:14.046Z,9.08
2019-05-14T21:09:49.123Z,9.08
2019-05-14T21:12:21.531Z,9.06
2019-05-14T21:14:54.430Z,9.01
2019-05-14T21:17:28.269Z,8.97
2019-05-14T21:20:01.179Z,8.97
2019-05-14T21:22:33.920Z,9.00
2019-05-14T21:25:11.387Z,8.93
2019-05-14T21:27:48.298Z,8.93
2019-05-14T21:30:18.928Z,8.93
2019-05-14T21:32:51.318Z,8.91
2019-05-14T21:35:24.580Z,8.86
2019-05-14T21:37:59.371Z,8.86
2019-05-14T21:40:32.274Z,8.90
2019-05-14T21:43:05.100Z,8.87
2019-05-14T21:45:38.299Z,8.85
2019-05-14T21:48:11.300Z,8.84
2019-05-14T21:50:44.980Z,8.80
2019-05-14T21:53:19.089Z,8.80
2019-05-14T21:55:52.025Z,8.82
2019-05-14T21:58:24.736Z,8.80
2019-05-14T22:00:59.272Z,8.79
2019-05-14T22:03:32.810Z,8.79
2019-05-14T22:06:05.866Z,8.77
2019-05-14T22:08:39.346Z,8.77
2019-05-14T22:11:12.180Z,8.78
2019-05-14T22:13:44.740Z,8.69
2019-05-14T22:16:18.971Z,8.69
2019-05-14T22:18:51.627Z,8.66
2019-05-14T22:21:24.160Z,8.66
2019-05-14T22:23:58.742Z,8.64
2019-05-14T22:26:30.795Z,8.67
2019-05-14T22:29:03.625Z,8.61
2019-05-14T22:31:38.510Z,8.61
2019-05-14T22:34:10.687Z,8.61
2019-05-14T22:36:43.520Z,8.60
2019-05-14T22:39:19.811Z,8.59
2019-05-14T22:41:50.661Z,8.58
2019-05-14T22:44:23.165Z,8.56
2019-05-14T22:46:58.629Z,8.56
2019-05-14T22:49:30.650Z,8.54
2019-05-14T22:52:03.686Z,8.52
2019-05-14T22:54:38.478Z,8.49
2019-05-14T22:57:10.810Z,8.51
2019-05-14T22:59:43.320Z,8.51
2019-05-14T23:02:15.995Z,8.48
2019-05-14T23:04:49.290Z,8.48
2019-05-14T23:07:22.281Z,8.48
2019-05-14T23:09:54.945Z,8.48
2019-05-14T23:12:28.726Z,8.48
2019-05-14T23:15:01.381Z,8.46
2019-05-14T23:17:34.225Z,8.46
2019-05-14T23:20:09.165Z,8.45
2019-05-14T23:22:42.351Z,8.45
2019-05-14T23:25:15.141Z,8.45
2019-05-14T23:27:48.352Z,8.42
2019-05-14T23:30:33.695Z,8.42
2019-05-14T23:33:06.290Z,8.42
2019-05-14T23:35:39.356Z,8.39
2019-05-14T23:38:12.236Z,8.38
2019-05-14T23:40:45.005Z,8.35
2019-05-14T23:43:18.558Z,8.25
2019-05-14T23:45:51.330Z,8.25
2019-05-14T23:48:24.076Z,8.27
2019-05-14T23:50:58.439Z,8.26
2019-05-14T23:53:31.231Z,8.24
2019-05-14T23:56:03.771Z,8.21
2019-05-14T23:58:36.485Z,8.15
